createdAt,value
2019-05-05T00:01:17.811Z,4.80
2019-05-05T00:03:57.367Z,4.70
2019-05-05T00:06:26.401Z,4.70
2019-05-05T00:08:55.471Z,4.60
2019-05-05T00:11:30.741Z,4.60
2019-05-05T00:14:06.577Z,4.70
2019-05-05T00:16:37.171Z,4.70
2019-05-05T00:19:06.522Z,4.70
2019-05-05T00:21:34.393Z,4.50
2019-05-05T00:24:04.640Z,4.60
2019-05-05T00:26:34.847Z,4.60
2019-05-05T00:29:04.436Z,4.60
2019-05-05T00:31:34.902Z,4.50
2019-05-05T00:34:05.004Z,4.50
2019-05-05T00:36:35.266Z,4.50
2019-05-05T00:39:05.006Z,4.40
2019-05-05T00:41:34.645Z,4.40
2019-05-05T00:44:04.756Z,4.30
2019-05-05T00:46:51.514Z,4.30
2019-05-05T00:49:21.078Z,4.30
2019-05-05T00:51:49.976Z,4.30
2019-05-05T00:54:18.630Z,4.30
2019-05-05T00:56:47.322Z,4.30
2019-05-05T00:59:26.689Z,4.30
2019-05-05T01:01:59.964Z,4.20
2019-05-05T01:04:35.125Z,4.30
2019-05-05T01:07:04.995Z,4.20
2019-05-05T01:09:35.584Z,4.20
2019-05-05T01:12:06.128Z,4.20
2019-05-05T01:14:35.092Z,4.20
2019-05-05T01:17:05.260Z,4.10
2019-05-05T01:19:34.942Z,4.10
2019-05-05T01:22:04.932Z,4.20
2019-05-05T01:24:34.275Z,4.20
2019-05-05T01:27:04.258Z,4.20
2019-05-05T01:29:34.649Z,4.20
2019-05-05T01:32:05.352Z,4.20
2019-05-05T01:34:35.948Z,4.20
2019-05-05T01:37:09.474Z,4.20
2019-05-05T01:39:45.109Z,4.10
2019-05-05T01:42:15.389Z,4.10
2019-05-05T01:44:44.892Z,4.10
2019-05-05T01:47:14.775Z,4.00
2019-05-05T01:49:45.223Z,4.00
2019-05-05T01:52:15.023Z,3.90
2019-05-05T01:54:44.656Z,4.00
2019-05-05T01:57:14.794Z,3.90
2019-05-05T01:59:44.887Z,3.90
2019-05-05T02:02:14.623Z,3.90
2019-05-05T02:04:44.710Z,3.90
2019-05-05T02:07:14.465Z,3.80
2019-05-05T02:09:44.930Z,3.80
2019-05-05T02:12:15.845Z,3.70
2019-05-05T02:14:44.648Z,3.70
2019-05-05T02:17:14.374Z,3.70
2019-05-05T02:19:44.371Z,3.70
2019-05-05T02:22:14.700Z,3.70
2019-05-05T02:24:44.406Z,3.80
2019-05-05T02:27:14.523Z,3.70
2019-05-05T02:29:51.579Z,3.70
2019-05-05T02:32:25.880Z,3.70
2019-05-05T02:34:56.632Z,3.70
2019-05-05T02:37:25.886Z,3.70
2019-05-05T02:40:02.277Z,3.70
2019-05-05T02:42:26.245Z,3.60
2019-05-05T02:44:55.234Z,3.60
2019-05-05T02:47:28.675Z,3.50
2019-05-05T02:49:58.640Z,3.50
2019-05-05T02:52:27.615Z,3.40
2019-05-05T02:54:56.297Z,3.40
2019-05-05T02:57:24.911Z,3.40
2019-05-05T03:00:04.573Z,3.40
2019-05-05T03:02:35.396Z,3.40
2019-05-05T03:05:05.627Z,3.40
2019-05-05T03:07:34.587Z,3.30
2019-05-05T03:10:03.789Z,3.30
2019-05-05T03:12:34.602Z,3.30
2019-05-05T03:15:04.521Z,3.30
2019-05-05T03:17:34.063Z,3.20
2019-05-05T03:20:05.401Z,3.20
2019-05-05T03:22:34.284Z,3.10
2019-05-05T03:25:04.616Z,3.10
2019-05-05T03:27:34.120Z,3.10
2019-05-05T03:30:05.032Z,3.20
2019-05-05T03:32:36.031Z,3.20
2019-05-05T03:35:05.586Z,3.20
2019-05-05T03:37:34.522Z,3.20
2019-05-05T03:40:05.276Z,3.20
2019-05-05T03:42:48.085Z,3.10
2019-05-05T03:45:23.365Z,3.10
2019-05-05T03:47:54.136Z,3.10
2019-05-05T03:50:23.753Z,3.10
2019-05-05T03:52:54.400Z,3.20
2019-05-05T03:55:24.151Z,3.20
2019-05-05T03:57:53.827Z,3.10
2019-05-05T04:00:48.837Z,3.20
2019-05-05T04:03:17.729Z,3.20
2019-05-05T04:05:47.965Z,3.20
2019-05-05T04:08:17.063Z,3.20
2019-05-05T04:10:45.733Z,3.20
2019-05-05T04:13:14.419Z,3.20
2019-05-05T04:15:44.663Z,3.20
2019-05-05T04:18:21.284Z,3.20
2019-05-05T04:20:50.181Z,3.20
2019-05-05T04:23:18.797Z,3.20
2019-05-05T04:25:47.397Z,3.20
2019-05-05T04:28:16.112Z,3.30
2019-05-05T04:30:44.699Z,3.20
2019-05-05T04:33:14.287Z,3.30
2019-05-05T04:35:44.426Z,3.40
2019-05-05T04:38:14.009Z,3.40
2019-05-05T04:40:43.572Z,3.40
2019-05-05T04:43:14.291Z,3.50
2019-05-05T04:45:43.646Z,3.50
2019-05-05T04:48:13.848Z,3.50
2019-05-05T04:50:56.305Z,3.60
2019-05-05T04:53:26.863Z,3.60
2019-05-05T04:55:55.823Z,3.70
2019-05-05T04:58:24.431Z,3.80
2019-05-05T05:00:54.681Z,3.90
2019-05-05T05:03:28.335Z,3.90
2019-05-05T05:05:58.973Z,4.00
2019-05-05T05:08:27.929Z,4.00
2019-05-05T05:10:56.559Z,4.10
2019-05-05T05:13:25.176Z,4.10
2019-05-05T05:15:54.077Z,4.10
2019-05-05T05:18:23.839Z,4.20
2019-05-05T05:20:51.893Z,4.30
2019-05-05T05:23:20.517Z,4.40
2019-05-05T05:25:49.119Z,4.50
2019-05-05T05:28:17.808Z,4.60
2019-05-05T05:30:46.488Z,4.60
2019-05-05T05:33:15.104Z,4.70
2019-05-05T05:35:44.218Z,4.80
2019-05-05T05:38:14.009Z,4.90
2019-05-05T05:40:44.762Z,4.90
2019-05-05T05:43:27.708Z,5.00
2019-05-05T05:46:07.478Z,5.10
2019-05-05T05:48:47.412Z,5.20
2019-05-05T05:51:19.504Z,5.20
2019-05-05T05:53:48.570Z,5.30
2019-05-05T05:56:17.190Z,5.40
2019-05-05T05:58:45.782Z,5.50
2019-05-05T06:01:14.797Z,5.50
2019-05-05T06:03:44.368Z,5.60
2019-05-05T06:06:13.832Z,5.70
2019-05-05T06:08:43.996Z,5.80
2019-05-05T06:11:13.660Z,5.90
2019-05-05T06:13:44.435Z,5.90
2019-05-05T06:16:14.561Z,6.00
2019-05-05T06:18:43.819Z,6.10
2019-05-05T06:21:13.742Z,6.20
2019-05-05T06:23:43.690Z,6.30
2019-05-05T06:26:15.202Z,6.40
2019-05-05T06:28:44.725Z,6.50
2019-05-05T06:31:14.658Z,6.50
2019-05-05T06:33:43.900Z,6.60
2019-05-05T06:36:11.633Z,6.70
2019-05-05T06:38:40.588Z,6.70
2019-05-05T06:41:23.703Z,6.80
2019-05-05T06:43:54.360Z,6.90
2019-05-05T06:46:24.935Z,6.90
2019-05-05T06:48:53.962Z,7.00
2019-05-05T06:51:24.522Z,7.00
2019-05-05T06:53:53.972Z,7.10
2019-05-05T06:56:23.804Z,7.20
2019-05-05T06:58:54.043Z,7.20
2019-05-05T07:01:24.751Z,7.20
2019-05-05T07:03:54.189Z,7.30
2019-05-05T07:06:23.927Z,7.40
2019-05-05T07:08:54.587Z,7.40
2019-05-05T07:11:23.895Z,7.40
2019-05-05T07:13:53.686Z,7.50
2019-05-05T07:16:24.350Z,7.60
2019-05-05T07:18:53.978Z,7.60
2019-05-05T07:21:23.797Z,7.70
2019-05-05T07:23:53.990Z,7.80
2019-05-05T07:26:23.761Z,7.80
2019-05-05T07:28:54.154Z,7.90
2019-05-05T07:31:23.924Z,7.90
2019-05-05T07:33:54.487Z,8.10
2019-05-05T07:36:44.309Z,8.10
2019-05-05T07:39:14.236Z,8.10
2019-05-05T07:41:44.549Z,8.20
2019-05-05T07:44:25.779Z,8.20
2019-05-05T07:46:44.105Z,8.30
2019-05-05T07:49:13.879Z,8.30
2019-05-05T07:51:44.265Z,8.40
2019-05-05T07:54:14.504Z,8.40
2019-05-05T07:56:44.438Z,8.40
2019-05-05T07:59:14.593Z,8.50
2019-05-05T08:01:46.525Z,8.60
2019-05-05T08:04:14.452Z,8.60
2019-05-05T08:06:44.559Z,8.70
2019-05-05T08:09:14.611Z,8.80
2019-05-05T08:11:43.786Z,8.90
2019-05-05T08:14:14.553Z,8.90
2019-05-05T08:17:01.577Z,8.90
2019-05-05T08:19:34.383Z,9.00
2019-05-05T08:22:03.680Z,9.00
2019-05-05T08:24:50.967Z,9.10
2019-05-05T08:27:25.000Z,9.20
2019-05-05T08:29:55.671Z,9.30
2019-05-05T08:32:26.279Z,9.50
2019-05-05T08:35:00.528Z,9.60
2019-05-05T08:37:25.803Z,9.80
2019-05-05T08:39:54.415Z,10.00
2019-05-05T08:42:24.705Z,10.10
2019-05-05T08:44:53.939Z,10.10
2019-05-05T08:47:24.443Z,10.10
2019-05-05T08:49:53.727Z,10.10
2019-05-05T08:52:23.845Z,10.10
2019-05-05T08:54:54.174Z,10.20
2019-05-05T08:57:23.684Z,10.30
2019-05-05T08:59:54.458Z,10.30
2019-05-05T09:02:24.014Z,10.40
2019-05-05T09:04:53.807Z,10.40
2019-05-05T09:07:24.323Z,10.30
2019-05-05T09:09:54.698Z,10.20
2019-05-05T09:12:23.709Z,10.30
2019-05-05T09:14:53.870Z,10.30
2019-05-05T09:17:24.307Z,10.20
2019-05-05T09:19:53.852Z,10.20
2019-05-05T09:22:24.464Z,10.20
2019-05-05T09:25:04.389Z,10.20
2019-05-05T09:27:35.140Z,10.10
2019-05-05T09:30:05.458Z,10.10
2019-05-05T09:32:34.541Z,10.20
2019-05-05T09:35:04.573Z,10.20
2019-05-05T09:37:33.978Z,10.30
2019-05-05T09:40:04.588Z,10.40
2019-05-05T09:42:34.153Z,10.60
2019-05-05T09:45:04.743Z,10.70
2019-05-05T09:47:34.369Z,10.80
2019-05-05T09:50:07.042Z,10.90
2019-05-05T09:52:36.010Z,11.00
2019-05-05T09:55:06.580Z,11.10
2019-05-05T09:57:35.564Z,11.30
2019-05-05T10:00:07.781Z,11.40
2019-05-05T10:02:36.761Z,11.60
2019-05-05T10:05:07.394Z,11.60
2019-05-05T10:07:36.392Z,11.60
2019-05-05T10:10:05.972Z,11.60
2019-05-05T10:12:34.944Z,11.50
2019-05-05T10:15:07.495Z,11.00
2019-05-05T10:17:35.469Z,11.00
2019-05-05T10:20:06.651Z,11.00
2019-05-05T10:22:35.886Z,10.70
2019-05-05T10:25:21.125Z,10.50
2019-05-05T10:27:49.520Z,10.50
2019-05-05T10:30:18.202Z,10.40
2019-05-05T10:32:46.889Z,10.40
2019-05-05T10:35:15.500Z,10.60
2019-05-05T10:37:44.275Z,10.50
2019-05-05T10:40:14.519Z,10.20
2019-05-05T10:42:49.350Z,10.30
2019-05-05T10:45:24.208Z,10.50
2019-05-05T10:47:52.717Z,10.70
2019-05-05T10:50:21.358Z,10.90
2019-05-05T10:52:50.528Z,11.10
2019-05-05T10:55:19.510Z,11.30
2019-05-05T10:57:48.190Z,11.50
2019-05-05T11:00:20.363Z,11.60
2019-05-05T11:02:49.349Z,11.70
2019-05-05T11:05:18.032Z,11.70
2019-05-05T11:07:46.642Z,11.90
2019-05-05T11:10:18.597Z,12.00
2019-05-05T11:12:47.504Z,12.00
2019-05-05T11:15:16.140Z,11.90
2019-05-05T11:17:44.814Z,11.90
2019-05-05T11:20:14.365Z,11.80
2019-05-05T11:22:43.882Z,11.70
2019-05-05T11:25:13.887Z,11.70
2019-05-05T11:27:44.013Z,11.70
2019-05-05T11:30:14.912Z,11.80
2019-05-05T11:33:03.885Z,11.80
2019-05-05T11:35:44.411Z,11.70
2019-05-05T11:38:14.196Z,11.80
2019-05-05T11:40:43.939Z,11.90
2019-05-05T11:43:14.204Z,12.00
2019-05-05T11:45:43.937Z,12.00
2019-05-05T11:48:14.796Z,12.00
2019-05-05T11:50:43.828Z,12.10
2019-05-05T11:53:11.587Z,12.30
2019-05-05T11:55:39.995Z,12.40
2019-05-05T11:58:08.595Z,12.40
2019-05-05T12:00:37.214Z,12.40
2019-05-05T12:03:05.899Z,12.40
2019-05-05T12:05:34.579Z,12.50
2019-05-05T12:08:03.904Z,12.70
2019-05-05T12:10:35.664Z,12.90
2019-05-05T12:13:06.237Z,12.70
2019-05-05T12:15:34.923Z,12.70
2019-05-05T12:18:03.898Z,12.90
2019-05-05T12:20:36.787Z,12.80
2019-05-05T12:23:05.958Z,12.70
2019-05-05T12:25:50.622Z,13.00
2019-05-05T12:28:26.308Z,13.20
2019-05-05T12:31:14.136Z,13.10
2019-05-05T12:33:44.221Z,13.10
2019-05-05T12:36:15.105Z,13.20
2019-05-05T12:38:44.031Z,13.30
2019-05-05T12:41:14.862Z,13.00
2019-05-05T12:43:44.165Z,13.10
2019-05-05T12:46:24.314Z,13.30
2019-05-05T12:48:54.979Z,13.40
2019-05-05T12:51:24.553Z,13.40
2019-05-05T12:53:54.030Z,13.10
2019-05-05T12:56:23.806Z,13.00
2019-05-05T12:58:54.374Z,13.30
2019-05-05T13:01:30.856Z,13.40
2019-05-05T13:03:59.452Z,13.30
2019-05-05T13:06:28.246Z,13.40
2019-05-05T13:08:56.630Z,13.50
2019-05-05T13:11:25.254Z,13.50
2019-05-05T13:13:54.519Z,13.50
2019-05-05T13:16:25.049Z,13.40
2019-05-05T13:18:54.042Z,13.50
2019-05-05T13:21:40.546Z,13.40
2019-05-05T13:24:14.056Z,13.70
2019-05-05T13:26:44.393Z,14.10
2019-05-05T13:29:13.947Z,14.30
2019-05-05T13:31:44.177Z,14.50
2019-05-05T13:34:13.667Z,14.70
2019-05-05T13:36:44.154Z,14.80
2019-05-05T13:39:14.444Z,14.70
2019-05-05T13:41:44.807Z,14.40
2019-05-05T13:44:18.402Z,14.20
2019-05-05T13:46:47.005Z,14.00
2019-05-05T13:49:17.267Z,13.90
2019-05-05T13:51:45.983Z,13.90
2019-05-05T13:54:14.393Z,14.00
2019-05-05T13:56:44.182Z,14.30
2019-05-05T13:59:14.107Z,14.30
2019-05-05T14:01:44.850Z,14.50
2019-05-05T14:04:13.291Z,14.60
2019-05-05T14:06:43.980Z,14.70
2019-05-05T14:09:13.815Z,14.60
2019-05-05T14:11:44.531Z,14.80
2019-05-05T14:14:13.826Z,14.90
2019-05-05T14:16:44.644Z,15.30
2019-05-05T14:19:14.606Z,15.50
2019-05-05T14:21:44.649Z,15.40
2019-05-05T14:24:17.915Z,15.60
2019-05-05T14:26:46.588Z,16.60
2019-05-05T14:29:16.629Z,15.80
2019-05-05T14:31:45.598Z,15.00
2019-05-05T14:34:20.650Z,14.60
2019-05-05T14:36:50.697Z,14.30
2019-05-05T14:39:20.567Z,14.80
2019-05-05T14:41:49.265Z,16.00
2019-05-05T14:44:16.974Z,17.00
2019-05-05T14:46:45.750Z,17.20
2019-05-05T14:49:14.065Z,17.60
2019-05-05T14:51:44.528Z,19.30
2019-05-05T14:54:14.769Z,19.70
2019-05-05T14:56:44.052Z,20.00
2019-05-05T14:59:14.200Z,20.80
2019-05-05T15:01:44.730Z,21.80
2019-05-05T15:04:15.254Z,22.00
2019-05-05T15:06:48.504Z,20.80
2019-05-05T15:09:18.831Z,18.60
2019-05-05T15:12:05.695Z,18.70
2019-05-05T15:14:34.379Z,20.10
2019-05-05T15:17:03.672Z,20.90
2019-05-05T15:19:34.032Z,21.10
2019-05-05T15:22:02.853Z,21.10
2019-05-05T15:24:33.608Z,21.20
2019-05-05T15:27:02.327Z,20.60
2019-05-05T15:29:30.062Z,19.00
2019-05-05T15:31:58.749Z,18.80
2019-05-05T15:34:26.486Z,17.90
2019-05-05T15:36:55.092Z,17.10
2019-05-05T15:39:24.623Z,16.20
2019-05-05T15:41:54.213Z,15.20
2019-05-05T15:44:24.108Z,14.70
2019-05-05T15:46:57.351Z,14.20
2019-05-05T15:49:24.143Z,13.50
2019-05-05T15:51:53.986Z,13.20
2019-05-05T15:54:23.586Z,13.10
2019-05-05T15:57:04.816Z,12.90
2019-05-05T15:59:23.899Z,12.90
2019-05-05T16:01:54.847Z,12.70
2019-05-05T16:04:23.793Z,12.60
2019-05-05T16:06:53.913Z,12.20
2019-05-05T16:09:22.925Z,12.60
2019-05-05T16:11:51.494Z,13.60
2019-05-05T16:14:19.478Z,14.50
2019-05-05T16:16:59.269Z,15.30
2019-05-05T16:19:29.622Z,15.70
2019-05-05T16:21:59.935Z,15.40
2019-05-05T16:24:30.285Z,14.80
2019-05-05T16:26:59.578Z,14.30
2019-05-05T16:29:28.851Z,13.60
2019-05-05T16:31:58.122Z,13.10
2019-05-05T16:34:27.094Z,12.80
2019-05-05T16:36:57.061Z,12.70
2019-05-05T16:39:26.184Z,12.70
2019-05-05T16:41:55.046Z,12.70
2019-05-05T16:44:23.411Z,12.60
2019-05-05T16:46:53.833Z,12.60
2019-05-05T16:49:22.281Z,13.40
2019-05-05T16:51:54.416Z,13.50
2019-05-05T16:54:24.896Z,13.30
2019-05-05T16:56:53.568Z,12.90
2019-05-05T16:59:23.748Z,12.70
2019-05-05T17:01:54.118Z,12.70
2019-05-05T17:04:24.376Z,12.60
2019-05-05T17:06:54.662Z,12.10
2019-05-05T17:09:24.083Z,11.80
2019-05-05T17:11:57.814Z,11.80
2019-05-05T17:14:28.416Z,11.80
2019-05-05T17:16:59.050Z,11.80
2019-05-05T17:19:33.879Z,11.50
2019-05-05T17:22:07.659Z,11.60
2019-05-05T17:24:38.838Z,11.60
2019-05-05T17:27:07.344Z,11.30
2019-05-05T17:29:35.958Z,11.20
2019-05-05T17:32:04.783Z,11.10
2019-05-05T17:34:34.045Z,11.10
2019-05-05T17:37:04.287Z,11.00
2019-05-05T17:39:35.124Z,10.90
2019-05-05T17:42:23.834Z,11.00
2019-05-05T17:45:10.293Z,11.10
2019-05-05T17:47:49.903Z,11.00
2019-05-05T17:50:37.197Z,10.90
2019-05-05T17:53:07.765Z,10.80
2019-05-05T17:55:38.406Z,10.60
2019-05-05T17:58:07.413Z,10.50
2019-05-05T18:00:37.882Z,10.30
2019-05-05T18:03:06.864Z,10.20
2019-05-05T18:05:55.370Z,10.00
2019-05-05T18:08:44.561Z,9.90
2019-05-05T18:11:25.393Z,9.90
2019-05-05T18:13:56.152Z,9.70
2019-05-05T18:16:30.093Z,9.70
2019-05-05T18:18:59.103Z,9.70
2019-05-05T18:21:31.779Z,9.80
2019-05-05T18:23:58.615Z,9.80
2019-05-05T18:26:27.292Z,9.80
2019-05-05T18:28:55.988Z,9.90
2019-05-05T18:31:24.669Z,9.80
2019-05-05T18:33:54.389Z,9.80
2019-05-05T18:36:23.636Z,9.80
2019-05-05T18:38:55.363Z,9.70
2019-05-05T18:41:34.826Z,9.60
2019-05-05T18:44:17.691Z,9.50
2019-05-05T18:46:48.334Z,9.50
2019-05-05T18:49:17.464Z,9.50
2019-05-05T18:51:45.848Z,9.50
2019-05-05T18:54:14.572Z,9.50
2019-05-05T18:57:12.736Z,9.50
2019-05-05T18:59:41.407Z,9.50
2019-05-05T19:02:17.579Z,9.50
2019-05-05T19:04:48.671Z,9.50
2019-05-05T19:07:23.749Z,9.50
2019-05-05T19:09:54.981Z,9.40
2019-05-05T19:12:24.363Z,9.30
2019-05-05T19:14:55.004Z,9.30
2019-05-05T19:17:24.224Z,9.20
2019-05-05T19:19:55.033Z,9.10
2019-05-05T19:22:24.437Z,9.10
2019-05-05T19:24:54.864Z,9.10
2019-05-05T19:27:24.123Z,9.10
2019-05-05T19:29:53.636Z,9.00
2019-05-05T19:32:22.119Z,8.90
2019-05-05T19:34:50.863Z,8.90
2019-05-05T19:37:19.751Z,8.80
2019-05-05T19:39:48.433Z,8.90
2019-05-05T19:42:17.135Z,8.90
2019-05-05T19:44:45.747Z,8.90
2019-05-05T19:47:19.133Z,8.90
2019-05-05T19:49:51.438Z,8.80
2019-05-05T19:52:20.421Z,8.90
2019-05-05T19:54:50.777Z,8.80
2019-05-05T19:57:24.423Z,8.80
2019-05-05T19:59:54.311Z,8.70
2019-05-05T20:02:24.658Z,8.70
2019-05-05T20:04:55.381Z,8.60
2019-05-05T20:07:24.793Z,8.60
2019-05-05T20:09:55.671Z,8.50
2019-05-05T20:12:24.641Z,8.50
2019-05-05T20:14:54.440Z,8.40
2019-05-05T20:17:28.488Z,8.40
2019-05-05T20:19:57.583Z,8.40
2019-05-05T20:22:26.030Z,8.50
2019-05-05T20:24:54.767Z,8.50
2019-05-05T20:27:23.589Z,8.50
2019-05-05T20:29:52.041Z,8.50
2019-05-05T20:32:24.362Z,8.50
2019-05-05T20:35:00.200Z,8.30
2019-05-05T20:37:47.413Z,8.30
2019-05-05T20:40:18.019Z,8.30
2019-05-05T20:42:47.012Z,8.20
2019-05-05T20:45:17.332Z,8.20
2019-05-05T20:47:46.350Z,8.20
2019-05-05T20:50:15.024Z,8.20
2019-05-05T20:52:44.189Z,8.20
2019-05-05T20:55:14.066Z,8.10
2019-05-05T20:57:44.300Z,8.10
2019-05-05T21:00:15.080Z,8.10
2019-05-05T21:02:44.062Z,8.10
2019-05-05T21:05:14.551Z,8.10
2019-05-05T21:07:44.408Z,8.10
2019-05-05T21:10:14.384Z,8.10
2019-05-05T21:12:45.544Z,8.10
2019-05-05T21:15:14.165Z,8.00
2019-05-05T21:17:44.825Z,8.00
2019-05-05T21:20:14.484Z,7.90
2019-05-05T21:22:45.277Z,7.90
2019-05-05T21:25:24.658Z,7.90
2019-05-05T21:27:53.591Z,7.90
2019-05-05T21:30:23.813Z,7.80
2019-05-05T21:32:54.645Z,7.80
2019-05-05T21:35:23.992Z,7.80
2019-05-05T21:37:54.309Z,7.70
2019-05-05T21:40:25.129Z,7.70
2019-05-05T21:42:54.365Z,7.80
2019-05-05T21:45:23.215Z,7.80
2019-05-05T21:47:51.900Z,7.70
2019-05-05T21:50:24.017Z,7.70
2019-05-05T21:53:04.605Z,7.70
2019-05-05T21:55:47.780Z,7.70
2019-05-05T21:58:18.466Z,7.60
2019-05-05T22:00:54.624Z,7.60
2019-05-05T22:03:27.280Z,7.60
2019-05-05T22:05:56.187Z,7.60
2019-05-05T22:08:24.855Z,7.60
2019-05-05T22:10:54.321Z,7.60
2019-05-05T22:13:23.473Z,7.70
2019-05-05T22:15:54.430Z,7.60
2019-05-05T22:18:22.790Z,7.60
2019-05-05T22:20:54.628Z,7.60
2019-05-05T22:23:23.713Z,7.60
2019-05-05T22:25:54.371Z,7.70
2019-05-05T22:28:24.293Z,7.70
2019-05-05T22:30:55.518Z,7.60
2019-05-05T22:33:24.785Z,7.60
2019-05-05T22:35:54.866Z,7.60
2019-05-05T22:38:24.547Z,7.50
2019-05-05T22:40:54.538Z,7.50
2019-05-05T22:43:23.956Z,7.50
2019-05-05T22:45:54.126Z,7.50
2019-05-05T22:48:23.992Z,7.40
2019-05-05T22:50:54.488Z,7.40
2019-05-05T22:53:23.908Z,7.40
2019-05-05T22:55:53.103Z,7.40
2019-05-05T22:58:23.879Z,7.30
2019-05-05T23:00:54.702Z,7.30
2019-05-05T23:03:24.689Z,7.30
2019-05-05T23:06:10.665Z,7.30
2019-05-05T23:08:39.748Z,7.30
2019-05-05T23:11:08.401Z,7.30
2019-05-05T23:13:37.025Z,7.30
2019-05-05T23:16:14.638Z,7.30
2019-05-05T23:19:17.715Z,7.20
2019-05-05T23:21:48.300Z,7.20
2019-05-05T23:24:24.391Z,7.20
2019-05-05T23:26:55.012Z,7.10
2019-05-05T23:29:24.247Z,7.10
2019-05-05T23:31:54.747Z,7.10
2019-05-05T23:34:24.345Z,7.10
2019-05-05T23:36:53.654Z,7.10
2019-05-05T23:39:24.286Z,7.10
2019-05-05T23:41:54.751Z,7.00
2019-05-05T23:44:23.945Z,7.10
2019-05-05T23:46:53.740Z,7.10
2019-05-05T23:49:24.216Z,7.10
2019-05-05T23:51:54.156Z,7.00
2019-05-05T23:54:24.570Z,7.10
2019-05-05T23:56:53.997Z,7.10
2019-05-05T23:59:24.082Z,7.10
